Time;durP1;ratioP1;P1;durP2;ratioP2;P2;SDS_P1;SDS_P2;PMS_P1;PMS_P2;Temp;Humidity;BMP_temperature;BMP_pressure;BME280_temperature;BME280_humidity;BME280_pressure;Samples;Min_cycle;Max_cycle;Signal;HPM_P1;HPM_P2
2023/06/09 00:00:55;;;;;;;13.60;6.50;;;12.80;99.90;;;;;;4907061;29;20083;-75
2023/06/09 00:03:21;;;;;;;13.27;5.68;;;12.70;99.90;;;;;;4909421;28;20892;-77
2023/06/09 00:05:48;;;;;;;12.75;5.85;;;12.90;99.90;;;;;;4928009;29;20552;-78
2023/06/09 00:08:14;;;;;;;12.00;6.07;;;12.80;99.90;;;;;;4895719;29;20071;-77
2023/06/09 00:10:39;;;;;;;10.38;5.85;;;12.80;99.90;;;;;;4925447;29;20082;-77
2023/06/09 00:13:05;;;;;;;18.60;6.50;;;12.80;99.90;;;;;;4895171;29;20040;-77
2023/06/09 00:15:31;;;;;;;10.38;6.03;;;12.80;99.90;;;;;;4923609;29;20452;-75
2023/06/09 00:17:56;;;;;;;13.23;6.50;;;12.70;99.90;;;;;;4882171;29;20036;-74
2023/06/09 00:20:24;;;;;;;17.70;6.05;;;12.80;99.90;;;;;;4904436;29;20071;-77
2023/06/09 00:22:50;;;;;;;16.73;6.68;;;12.70;99.90;;;;;;4920757;29;20119;-76
2023/06/09 00:25:20;;;;;;;10.15;5.25;;;12.70;99.90;;;;;;4906261;29;20090;-77
2023/06/09 00:27:46;;;;;;;12.32;6.30;;;12.80;99.90;;;;;;4920662;28;20086;-75
2023/06/09 00:30:14;;;;;;;16.05;6.28;;;12.80;99.90;;;;;;4911544;28;20060;-76
2023/06/09 00:32:42;;;;;;;15.23;6.38;;;12.80;99.90;;;;;;4909003;29;20672;-75
2023/06/09 00:35:08;;;;;;;12.02;5.63;;;12.90;99.90;;;;;;4923954;29;20028;-78
2023/06/09 00:37:35;;;;;;;13.75;6.32;;;12.80;99.90;;;;;;4918196;28;20511;-75
2023/06/09 00:40:01;;;;;;;15.13;6.15;;;12.90;99.90;;;;;;4897735;28;20438;-76
2023/06/09 00:42:28;;;;;;;14.50;6.13;;;12.70;99.90;;;;;;4923275;29;20039;-75
2023/06/09 00:44:54;;;;;;;13.60;6.70;;;12.80;99.90;;;;;;4909704;28;20043;-75
2023/06/09 00:47:19;;;;;;;14.32;6.40;;;12.70;99.90;;;;;;4925304;29;20039;-77
2023/06/09 00:49:45;;;;;;;13.70;6.25;;;12.80;99.90;;;;;;4894355;29;20048;-76
2023/06/09 00:52:11;;;;;;;13.82;5.57;;;12.80;99.90;;;;;;4906342;29;20032;-77
2023/06/09 00:54:37;;;;;;;11.90;6.18;;;12.70;99.90;;;;;;4904504;29;20051;-77
2023/06/09 00:57:07;;;;;;;15.73;5.82;;;12.80;99.90;;;;;;4909155;29;20044;-78
2023/06/09 00:59:36;;;;;;;11.68;6.10;;;12.60;99.90;;;;;;4910648;28;20044;-76
2023/06/09 01:02:04;;;;;;;16.60;6.10;;;12.80;99.90;;;;;;4928526;28;20046;-77
2023/06/09 01:04:32;;;;;;;11.35;6.82;;;12.80;99.90;;;;;;4906189;29;20044;-76
2023/06/09 01:07:20;;;;;;;16.00;6.15;;;12.70;99.90;;;;;;4904877;28;20047;-74
2023/06/09 01:10:18;;;;;;;14.70;6.20;;;12.70;99.90;;;;;;4926294;29;20499;-76
2023/06/09 01:13:12;;;;;;;17.77;6.15;;;12.70;99.90;;;;;;4933279;28;20131;-78
2023/06/09 01:15:49;;;;;;;15.63;6.72;;;12.70;99.90;;;;;;4928973;29;20520;-75
2023/06/09 01:18:17;;;;;;;15.90;6.95;;;12.70;99.90;;;;;;4903237;29;20437;-77
2023/06/09 01:21:06;;;;;;;14.70;7.45;;;12.90;99.90;;;;;;4912604;28;20383;-77
2023/06/09 01:23:53;;;;;;;15.38;6.60;;;12.70;99.90;;;;;;4898535;29;20072;-74
2023/06/09 01:26:20;;;;;;;16.55;6.80;;;12.70;99.90;;;;;;4907347;29;20051;-78
2023/06/09 01:28:47;;;;;;;12.00;5.93;;;12.70;99.90;;;;;;4893471;29;20395;-76
2023/06/09 01:31:15;;;;;;;12.30;5.82;;;12.70;99.90;;;;;;4893628;28;20428;-77
2023/06/09 01:33:43;;;;;;;12.07;6.38;;;12.80;99.90;;;;;;4885118;29;20032;-77
2023/06/09 01:36:09;;;;;;;16.48;6.60;;;12.70;99.90;;;;;;4907276;29;20473;-76
2023/06/09 01:38:35;;;;;;;13.38;5.60;;;12.90;99.90;;;;;;4928059;29;20074;-76
2023/06/09 01:41:01;;;;;;;19.15;6.20;;;12.90;99.90;;;;;;4910953;28;20064;-77
2023/06/09 01:43:26;;;;;;;14.65;6.68;;;12.80;99.90;;;;;;4927649;29;20109;-73
2023/06/09 01:45:52;;;;;;;10.38;5.82;;;12.80;99.90;;;;;;4893944;29;20036;-76
2023/06/09 01:48:18;;;;;;;11.20;6.28;;;12.80;99.90;;;;;;4919078;29;20049;-77
2023/06/09 01:51:05;;;;;;;14.85;7.10;;;12.70;99.90;;;;;;4900171;29;20392;-75
2023/06/09 01:53:37;;;;;;;13.13;6.65;;;12.70;99.90;;;;;;4903045;29;20094;-76
2023/06/09 01:56:17;;;;;;;15.27;7.10;;;12.80;99.90;;;;;;4922379;29;20079;-74
2023/06/09 01:58:46;;;;;;;20.08;7.47;;;12.80;99.90;;;;;;4911591;29;20048;-76
2023/06/09 02:01:17;;;;;;;16.95;7.63;;;12.80;99.90;;;;;;4925984;29;20044;-77
2023/06/09 02:03:44;;;;;;;12.20;6.43;;;12.60;99.90;;;;;;4909609;28;20774;-75
2023/06/09 02:06:15;;;;;;;14.85;6.95;;;12.80;99.90;;;;;;4901672;29;20047;-75
2023/06/09 02:08:42;;;;;;;17.67;7.60;;;12.70;99.90;;;;;;4916157;29;20668;-75
2023/06/09 02:11:09;;;;;;;14.15;6.72;;;12.70;99.90;;;;;;4901426;29;20047;-77
2023/06/09 02:13:35;;;;;;;15.88;7.85;;;12.70;99.90;;;;;;4910824;29;20123;-74
2023/06/09 02:16:01;;;;;;;16.15;7.22;;;12.80;99.90;;;;;;4925771;29;20036;-75
2023/06/09 02:18:26;;;;;;;19.33;7.90;;;12.90;99.90;;;;;;4912825;29;20040;-75
2023/06/09 02:20:52;;;;;;;12.60;7.10;;;12.90;99.90;;;;;;4909101;29;20036;-77
2023/06/09 02:23:21;;;;;;;17.73;6.97;;;12.80;99.90;;;;;;4905593;28;20046;-75
2023/06/09 02:25:47;;;;;;;16.23;6.43;;;12.80;99.90;;;;;;4920852;29;20473;-78
2023/06/09 02:28:14;;;;;;;11.02;6.90;;;12.80;99.90;;;;;;4907308;29;20421;-75
2023/06/09 02:30:39;;;;;;;18.25;6.80;;;12.70;99.90;;;;;;4905447;29;20056;-81
2023/06/09 02:33:05;;;;;;;14.88;7.50;;;12.80;99.90;;;;;;4904937;29;20109;-81
2023/06/09 02:35:31;;;;;;;15.95;7.43;;;13.00;99.90;;;;;;4908422;28;20032;-76
2023/06/09 02:37:57;;;;;;;15.45;7.35;;;12.80;99.90;;;;;;4891485;28;20058;-79
2023/06/09 02:40:27;;;;;;;15.80;7.47;;;12.90;99.90;;;;;;4907754;29;20039;-75
2023/06/09 02:42:53;;;;;;;12.88;7.35;;;12.90;99.90;;;;;;4892562;29;20048;-78
2023/06/09 02:45:19;;;;;;;13.85;7.68;;;13.00;99.90;;;;;;4921512;29;20054;-78
2023/06/09 02:47:45;;;;;;;15.13;6.72;;;13.00;99.90;;;;;;4924437;29;20579;-76
2023/06/09 02:50:11;;;;;;;16.35;7.22;;;13.00;99.90;;;;;;4907542;29;20393;-77
2023/06/09 02:52:39;;;;;;;11.70;7.60;;;13.00;99.90;;;;;;4920488;29;20041;-78
2023/06/09 02:55:06;;;;;;;20.63;9.18;;;12.90;99.90;;;;;;4901614;29;20048;-80
2023/06/09 02:57:32;;;;;;;16.10;7.80;;;13.00;99.90;;;;;;4925242;28;20429;-79
2023/06/09 02:59:58;;;;;;;15.35;8.05;;;13.00;99.90;;;;;;4925939;28;20098;-76
2023/06/09 03:02:26;;;;;;;18.48;7.82;;;13.00;99.90;;;;;;4908923;29;20051;-78
2023/06/09 03:04:52;;;;;;;14.00;7.25;;;13.00;99.90;;;;;;4909668;29;20051;-76
2023/06/09 03:07:18;;;;;;;15.27;7.85;;;13.00;99.90;;;;;;4922221;29;20051;-77
2023/06/09 03:09:44;;;;;;;16.77;7.93;;;12.90;99.90;;;;;;4890117;29;20080;-79
2023/06/09 03:12:10;;;;;;;14.15;8.35;;;13.00;99.90;;;;;;4930343;28;20087;-78
2023/06/09 03:14:36;;;;;;;16.23;8.30;;;13.00;99.90;;;;;;4908246;29;20043;-77
2023/06/09 03:17:04;;;;;;;18.50;8.10;;;12.80;99.90;;;;;;4929247;29;20035;-77
2023/06/09 03:19:30;;;;;;;15.75;8.35;;;12.80;99.90;;;;;;4902545;28;20130;-78
2023/06/09 03:21:57;;;;;;;22.15;9.00;;;12.90;99.90;;;;;;4932069;29;20135;-77
2023/06/09 03:24:24;;;;;;;18.35;8.07;;;12.90;99.90;;;;;;4916021;29;20075;-76
2023/06/09 03:26:52;;;;;;;20.33;8.88;;;12.80;99.90;;;;;;4925144;29;20574;-77
2023/06/09 03:29:18;;;;;;;18.02;8.65;;;13.10;99.90;;;;;;4911409;29;20496;-76
2023/06/09 03:31:44;;;;;;;18.42;9.18;;;13.10;99.90;;;;;;4913868;29;20078;-77
2023/06/09 03:34:10;;;;;;;20.23;9.00;;;12.90;99.90;;;;;;4917075;29;20063;-77
2023/06/09 03:36:36;;;;;;;16.63;9.02;;;13.10;99.90;;;;;;4920401;29;20071;-76
2023/06/09 03:39:02;;;;;;;18.45;8.80;;;12.90;99.90;;;;;;4899949;28;20046;-77
2023/06/09 03:41:28;;;;;;;14.63;7.82;;;13.00;99.90;;;;;;4924044;29;20119;-77
2023/06/09 03:43:54;;;;;;;13.85;8.23;;;13.20;99.90;;;;;;4890174;29;20160;-78
2023/06/09 03:46:20;;;;;;;15.35;8.55;;;13.00;99.90;;;;;;4909729;29;20039;-76
2023/06/09 03:48:46;;;;;;;17.15;8.32;;;13.00;99.90;;;;;;4931606;29;20044;-76
2023/06/09 03:51:12;;;;;;;19.55;8.77;;;13.10;99.90;;;;;;4917330;29;20574;-76
2023/06/09 03:53:38;;;;;;;16.40;7.50;;;13.20;99.90;;;;;;4908493;29;20063;-76
2023/06/09 03:56:04;;;;;;;16.35;8.00;;;13.10;99.90;;;;;;4909352;29;20042;-78
2023/06/09 03:58:29;;;;;;;15.25;7.82;;;13.30;99.90;;;;;;4923433;29;20440;-76
2023/06/09 04:00:55;;;;;;;19.88;8.07;;;13.20;99.90;;;;;;4914071;29;20082;-77
2023/06/09 04:03:22;;;;;;;15.70;7.35;;;13.10;99.90;;;;;;4887530;29;20520;-76
2023/06/09 04:05:47;;;;;;;16.67;7.30;;;13.30;99.90;;;;;;4906808;29;20040;-77
2023/06/09 04:08:13;;;;;;;16.08;8.20;;;13.40;99.90;;;;;;4908727;29;20036;-77
2023/06/09 04:10:40;;;;;;;13.60;8.38;;;13.30;99.90;;;;;;4915475;29;20040;-77
2023/06/09 04:13:07;;;;;;;16.05;7.78;;;13.20;99.90;;;;;;4906863;29;20119;-77
2023/06/09 04:15:33;;;;;;;16.73;7.38;;;13.40;99.90;;;;;;4930145;29;20039;-77
2023/06/09 04:17:59;;;;;;;13.13;6.80;;;13.40;99.90;;;;;;4891055;28;20047;-78
2023/06/09 04:20:26;;;;;;;14.07;7.00;;;13.50;99.90;;;;;;4928255;29;20102;-77
2023/06/09 04:22:53;;;;;;;15.70;7.45;;;13.30;99.90;;;;;;4906425;29;20511;-76
2023/06/09 04:25:25;;;;;;;14.77;7.13;;;13.60;99.90;;;;;;4927149;29;20059;-77
2023/06/09 04:27:56;;;;;;;13.82;7.70;;;13.50;99.90;;;;;;4902062;29;20652;-76
2023/06/09 04:30:25;;;;;;;18.42;6.70;;;13.70;99.90;;;;;;4924808;29;20214;-77
2023/06/09 04:32:55;;;;;;;12.00;6.82;;;13.50;99.90;;;;;;4895807;29;20040;-77
2023/06/09 04:35:22;;;;;;;15.50;7.15;;;13.80;99.90;;;;;;4908701;29;20047;-75
2023/06/09 04:37:51;;;;;;;13.48;7.25;;;13.60;99.90;;;;;;4895290;29;20396;-77
2023/06/09 04:40:21;;;;;;;16.05;7.80;;;13.80;99.90;;;;;;4907612;29;20431;-75
2023/06/09 04:42:51;;;;;;;16.92;7.22;;;13.90;99.90;;;;;;4908790;29;20507;-76
2023/06/09 04:45:20;;;;;;;13.77;7.10;;;13.70;99.90;;;;;;4919118;29;20200;-75
2023/06/09 04:47:48;;;;;;;13.60;6.82;;;13.90;99.90;;;;;;4912504;28;20043;-77
2023/06/09 04:50:15;;;;;;;16.10;7.57;;;14.00;99.90;;;;;;4906764;29;20048;-76
2023/06/09 04:52:42;;;;;;;14.43;8.52;;;13.90;99.90;;;;;;4887798;29;20040;-75
2023/06/09 04:55:08;;;;;;;17.52;8.00;;;13.80;99.90;;;;;;4921840;29;20043;-78
2023/06/09 04:57:34;;;;;;;22.83;7.65;;;14.00;99.90;;;;;;4905817;29;20070;-76
2023/06/09 05:00:15;;;;;;;17.65;8.30;;;13.80;99.90;;;;;;4912626;29;20138;-79
2023/06/09 05:02:44;;;;;;;15.68;7.63;;;14.20;99.90;;;;;;4906037;28;20044;-77
2023/06/09 05:05:12;;;;;;;15.98;8.15;;;14.20;99.90;;;;;;4924625;28;20036;-77
2023/06/09 05:07:39;;;;;;;20.90;8.20;;;14.30;99.90;;;;;;4910780;28;20079;-76
2023/06/09 05:10:10;;;;;;;19.13;7.28;;;14.30;99.90;;;;;;4896432;28;20914;-75
2023/06/09 05:12:36;;;;;;;19.55;8.45;;;14.20;99.90;;;;;;4925846;29;20047;-78
2023/06/09 05:15:03;;;;;;;20.35;7.45;;;14.30;99.90;;;;;;4905436;29;20528;-73
2023/06/09 05:17:30;;;;;;;17.00;7.65;;;14.50;99.90;;;;;;4929031;29;20035;-75
2023/06/09 05:19:56;;;;;;;18.45;7.97;;;14.60;99.90;;;;;;4905057;29;20052;-77
2023/06/09 05:22:21;;;;;;;16.58;7.50;;;14.60;99.90;;;;;;4910068;29;20055;-77
2023/06/09 05:24:47;;;;;;;16.80;7.05;;;14.60;99.90;;;;;;4908511;29;20125;-75
2023/06/09 05:27:13;;;;;;;12.60;7.30;;;14.60;99.90;;;;;;4906074;29;20062;-75
2023/06/09 05:29:38;;;;;;;12.38;7.20;;;14.70;99.90;;;;;;4910391;29;20478;-77
2023/06/09 05:32:05;;;;;;;13.38;6.95;;;14.70;99.90;;;;;;4903065;29;20328;-75
2023/06/09 05:34:31;;;;;;;15.50;6.55;;;14.90;99.90;;;;;;4894475;28;20032;-78
2023/06/09 05:36:57;;;;;;;14.82;7.13;;;15.00;99.90;;;;;;4902120;29;20166;-76
2023/06/09 05:39:22;;;;;;;14.45;7.15;;;15.10;99.90;;;;;;4917457;29;20043;-78
2023/06/09 05:41:48;;;;;;;14.75;7.38;;;15.10;99.90;;;;;;4887425;28;20048;-79
2023/06/09 05:44:20;;;;;;;16.33;8.05;;;15.30;99.90;;;;;;5076839;27;20524;-77
2023/06/09 05:46:46;;;;;;;16.95;7.63;;;15.00;99.90;;;;;;5084992;28;20074;-78
2023/06/09 05:49:12;;;;;;;15.80;7.72;;;15.00;99.90;;;;;;5057653;28;20035;-76
2023/06/09 05:51:38;;;;;;;19.55;8.35;;;15.20;99.90;;;;;;5059433;28;20036;-75
2023/06/09 05:54:04;;;;;;;16.48;8.90;;;15.10;99.90;;;;;;5050559;28;20040;-75
2023/06/09 05:56:29;;;;;;;16.05;8.07;;;15.30;99.90;;;;;;5065070;28;20048;-74
2023/06/09 05:59:03;;;;;;;14.85;7.88;;;15.20;99.90;;;;;;5076969;28;20037;-74
2023/06/09 06:01:30;;;;;;;14.30;8.27;;;15.40;99.90;;;;;;5091139;28;20036;-76
2023/06/09 06:03:55;;;;;;;15.43;6.95;;;15.50;99.90;;;;;;5067710;28;20121;-74
2023/06/09 06:06:21;;;;;;;15.93;7.80;;;15.60;99.90;;;;;;5068134;28;20127;-76
2023/06/09 06:08:47;;;;;;;15.73;7.22;;;15.60;99.90;;;;;;5064545;28;20036;-74
2023/06/09 06:11:13;;;;;;;13.32;7.00;;;15.80;99.90;;;;;;5074268;28;20048;-72
2023/06/09 06:13:38;;;;;;;13.50;6.82;;;15.90;99.90;;;;;;5084596;28;20072;-74
2023/06/09 06:16:04;;;;;;;13.10;6.90;;;16.10;99.90;;;;;;5084041;28;20058;-75
2023/06/09 06:18:30;;;;;;;10.18;7.00;;;16.00;99.90;;;;;;5067610;28;20070;-74
2023/06/09 06:20:55;;;;;;;16.13;7.00;;;15.90;99.90;;;;;;5075851;28;20043;-74
2023/06/09 06:23:21;;;;;;;16.58;6.82;;;16.40;99.90;;;;;;5067788;28;20045;-74
2023/06/09 06:25:47;;;;;;;17.27;6.93;;;16.30;99.90;;;;;;5084246;28;20036;-75
2023/06/09 06:28:13;;;;;;;15.48;6.53;;;16.30;99.90;;;;;;5039493;28;20090;-74
2023/06/09 06:30:40;;;;;;;12.20;6.68;;;16.50;99.90;;;;;;5082609;28;20040;-73
2023/06/09 06:33:06;;;;;;;15.52;7.43;;;16.60;99.90;;;;;;5083274;28;20055;-75
2023/06/09 06:35:32;;;;;;;15.27;6.78;;;16.50;99.90;;;;;;5084675;28;20177;-75
2023/06/09 06:37:57;;;;;;;14.95;6.97;;;16.70;99.90;;;;;;5084774;28;20122;-74
2023/06/09 06:40:24;;;;;;;16.33;6.93;;;16.70;99.90;;;;;;5081776;28;20828;-74
2023/06/09 06:42:51;;;;;;;18.48;6.85;;;17.10;99.90;;;;;;5082973;28;20059;-74
2023/06/09 06:45:17;;;;;;;12.40;6.72;;;17.20;99.90;;;;;;5084289;28;20040;-75
2023/06/09 06:47:45;;;;;;;13.23;6.32;;;17.50;99.90;;;;;;5084646;28;20451;-75
2023/06/09 06:50:12;;;;;;;11.50;6.07;;;17.60;99.90;;;;;;5067504;28;20055;-73
2023/06/09 06:52:38;;;;;;;16.92;6.78;;;17.70;99.90;;;;;;5067355;28;20106;-74
2023/06/09 06:55:07;;;;;;;14.32;5.82;;;17.60;99.90;;;;;;5056978;28;20772;-73
2023/06/09 06:57:34;;;;;;;15.27;6.72;;;17.70;99.90;;;;;;5070764;28;20540;-73
2023/06/09 07:00:00;;;;;;;14.98;6.55;;;18.10;99.90;;;;;;5053148;28;20040;-74
2023/06/09 07:02:25;;;;;;;12.18;6.20;;;18.00;99.90;;;;;;5039620;28;20073;-74
2023/06/09 07:04:51;;;;;;;12.30;6.45;;;18.10;99.90;;;;;;5036950;28;20033;-74
2023/06/09 07:07:17;;;;;;;12.00;6.13;;;18.30;99.90;;;;;;5070449;28;20109;-74
2023/06/09 07:09:42;;;;;;;15.65;6.20;;;18.10;99.90;;;;;;5054181;28;20042;-74
2023/06/09 07:12:08;;;;;;;12.18;5.95;;;18.10;99.90;;;;;;5064241;28;20033;-76
2023/06/09 07:14:35;;;;;;;11.27;5.97;;;18.40;99.90;;;;;;5061580;28;20040;-76
2023/06/09 07:17:01;;;;;;;13.73;5.80;;;18.80;99.90;;;;;;5066210;28;20131;-77
2023/06/09 07:19:26;;;;;;;12.73;5.88;;;18.70;99.90;;;;;;5069851;28;20045;-73
2023/06/09 07:21:52;;;;;;;13.20;5.68;;;18.70;99.90;;;;;;5066839;28;20063;-74
2023/06/09 07:24:18;;;;;;;10.32;5.45;;;19.30;99.90;;;;;;5034361;28;20130;-74
2023/06/09 07:26:43;;;;;;;10.45;5.85;;;19.00;99.90;;;;;;5053592;28;20115;-72
2023/06/09 07:29:09;;;;;;;10.32;5.10;;;19.10;99.90;;;;;;5053363;28;20602;-73
2023/06/09 07:31:35;;;;;;;10.13;5.45;;;19.00;99.90;;;;;;5020494;28;20390;-71
2023/06/09 07:34:00;;;;;;;9.45;5.40;;;19.20;99.90;;;;;;5051954;28;20631;-73
2023/06/09 07:36:29;;;;;;;10.75;5.28;;;19.40;99.90;;;;;;5069172;28;20048;-74
2023/06/09 07:38:55;;;;;;;11.23;5.38;;;19.90;99.90;;;;;;5052799;28;20072;-74
2023/06/09 07:41:22;;;;;;;13.57;5.88;;;19.80;99.90;;;;;;5069450;28;20676;-75
2023/06/09 07:43:47;;;;;;;9.48;5.53;;;19.60;99.90;;;;;;5049842;28;20048;-73
2023/06/09 07:46:14;;;;;;;9.75;5.65;;;19.80;99.90;;;;;;5052322;28;20048;-74
2023/06/09 07:48:42;;;;;;;11.43;6.25;;;19.80;99.90;;;;;;5053013;28;20036;-74
2023/06/09 07:51:09;;;;;;;11.63;5.47;;;19.70;99.90;;;;;;5053364;28;20040;-74
2023/06/09 07:53:36;;;;;;;14.95;6.03;;;20.30;99.90;;;;;;5068930;28;20040;-72
2023/06/09 07:56:02;;;;;;;9.95;5.72;;;20.20;99.90;;;;;;5023425;28;20044;-73
2023/06/09 07:58:28;;;;;;;9.68;5.80;;;20.30;99.90;;;;;;5047445;28;20044;-73
2023/06/09 08:00:54;;;;;;;12.20;6.07;;;20.20;99.90;;;;;;5069348;28;20041;-72
2023/06/09 08:03:19;;;;;;;10.93;5.45;;;20.60;99.90;;;;;;5065631;28;20064;-74
2023/06/09 08:05:45;;;;;;;8.98;5.25;;;20.60;99.90;;;;;;5051685;28;20051;-75
2023/06/09 08:08:11;;;;;;;11.98;5.82;;;20.60;99.90;;;;;;5052113;28;20079;-73
2023/06/09 08:10:36;;;;;;;10.07;5.57;;;20.60;99.90;;;;;;5052800;28;20137;-73
2023/06/09 08:13:02;;;;;;;9.68;5.43;;;20.70;99.90;;;;;;5049389;28;20075;-76
2023/06/09 08:15:27;;;;;;;11.35;6.13;;;21.00;99.90;;;;;;5065230;28;20040;-72
2023/06/09 08:17:53;;;;;;;9.43;5.45;;;20.80;99.90;;;;;;5049527;28;20088;-76
2023/06/09 08:20:19;;;;;;;11.82;5.75;;;21.20;99.90;;;;;;5036101;28;20139;-74
2023/06/09 08:22:45;;;;;;;11.35;6.03;;;21.40;99.90;;;;;;5052273;28;20040;-72
2023/06/09 08:25:11;;;;;;;10.23;5.40;;;21.30;99.90;;;;;;5051721;28;20044;-73
2023/06/09 08:27:37;;;;;;;8.52;5.38;;;21.60;99.90;;;;;;5067464;28;20039;-75
2023/06/09 08:30:04;;;;;;;9.40;5.30;;;21.70;99.90;;;;;;5051792;28;20041;-73
2023/06/09 08:32:29;;;;;;;11.25;5.18;;;21.70;99.90;;;;;;5068964;28;20051;-73
2023/06/09 08:34:55;;;;;;;9.52;5.57;;;22.20;99.90;;;;;;5051662;28;20037;-74
2023/06/09 08:37:24;;;;;;;7.15;4.68;;;22.20;99.90;;;;;;5066123;28;20075;-73
2023/06/09 08:39:50;;;;;;;10.50;5.18;;;22.20;99.90;;;;;;5034901;28;20036;-74
2023/06/09 08:42:25;;;;;;;8.50;4.70;;;22.50;99.90;;;;;;5032206;28;20474;-71
2023/06/09 08:44:59;;;;;;;8.35;4.95;;;22.60;99.90;;;;;;5047182;28;20068;-76
2023/06/09 08:47:26;;;;;;;5.97;4.53;;;22.40;99.90;;;;;;5068625;28;20454;-74
2023/06/09 08:49:57;;;;;;;13.02;6.20;;;22.50;99.90;;;;;;5047828;28;20115;-75
2023/06/09 08:52:27;;;;;;;6.10;4.07;;;22.50;99.90;;;;;;5063270;28;20052;-74
2023/06/09 08:54:54;;;;;;;6.65;4.40;;;22.80;99.90;;;;;;5063543;28;20049;-75
2023/06/09 08:57:21;;;;;;;7.68;4.00;;;22.90;99.90;;;;;;5068352;28;20044;-74
2023/06/09 08:59:47;;;;;;;7.32;4.38;;;23.30;99.90;;;;;;5068872;28;20492;-73
2023/06/09 09:02:13;;;;;;;6.57;3.75;;;23.50;99.90;;;;;;5049747;28;20056;-73
2023/06/09 09:04:40;;;;;;;9.02;4.40;;;23.80;99.90;;;;;;5045688;28;20040;-75
2023/06/09 09:07:12;;;;;;;7.47;4.03;;;23.90;99.90;;;;;;5023191;28;20118;-73
2023/06/09 09:09:39;;;;;;;7.50;3.92;;;24.10;99.90;;;;;;5051730;28;20047;-75
2023/06/09 09:12:08;;;;;;;8.07;4.35;;;24.10;99.90;;;;;;5050665;28;20036;-75
2023/06/09 09:14:39;;;;;;;6.75;4.05;;;24.20;99.90;;;;;;5062472;28;20040;-76
2023/06/09 09:17:12;;;;;;;6.47;4.35;;;24.70;99.90;;;;;;5067429;28;20060;-74
2023/06/09 09:19:45;;;;;;;6.75;3.85;;;24.60;97.00;;;;;;5051751;28;20410;-75
2023/06/09 09:22:11;;;;;;;6.78;3.80;;;24.70;56.40;;;;;;5067167;28;20040;-75
2023/06/09 09:24:43;;;;;;;10.70;4.20;;;25.00;99.90;;;;;;5043221;28;20048;-74
2023/06/09 09:27:17;;;;;;;8.07;4.32;;;25.30;99.90;;;;;;5050674;28;20116;-75
2023/06/09 09:29:43;;;;;;;9.05;4.50;;;25.20;72.00;;;;;;5060652;28;20040;-75
2023/06/09 09:32:09;;;;;;;8.27;3.90;;;25.80;41.90;;;;;;5022934;28;20401;-75
2023/06/09 09:34:35;;;;;;;5.78;3.75;;;25.60;18.50;;;;;;5062304;28;20037;-74
2023/06/09 09:37:02;;;;;;;5.93;3.35;;;25.60;1.00;;;;;;5049966;28;20450;-76
2023/06/09 09:39:28;;;;;;;7.25;4.22;;;25.70;1.00;;;;;;5051030;28;20033;-75
2023/06/09 09:42:10;;;;;;;6.20;3.97;;;25.90;1.00;;;;;;5034589;28;20472;-76
2023/06/09 09:44:47;;;;;;;5.75;4.10;;;26.30;1.00;;;;;;5045334;28;20094;-75
2023/06/09 09:47:15;;;;;;;8.63;4.13;;;26.50;1.00;;;;;;5046449;28;20045;-75
2023/06/09 09:49:55;;;;;;;6.55;3.80;;;26.70;1.00;;;;;;5067205;28;20120;-74
2023/06/09 09:52:24;;;;;;;4.55;3.55;;;27.00;1.00;;;;;;5050446;28;20497;-74
2023/06/09 09:54:52;;;;;;;5.05;3.58;;;26.80;1.00;;;;;;5057265;28;20041;-76
2023/06/09 09:57:19;;;;;;;6.10;3.80;;;27.60;1.00;;;;;;5064448;28;20037;-76
2023/06/09 09:59:47;;;;;;;6.38;4.03;;;27.30;1.00;;;;;;5059490;28;20408;-75
2023/06/09 10:02:18;;;;;;;6.95;3.90;;;27.50;1.00;;;;;;5048558;28;20052;-75
2023/06/09 10:04:45;;;;;;;6.40;3.80;;;27.20;99.90;;;;;;5067115;28;20048;-74
2023/06/09 10:07:11;;;;;;;7.05;4.13;;;27.10;99.90;;;;;;5050485;28;20041;-72
2023/06/09 10:09:38;;;;;;;6.85;3.78;;;27.60;1.00;;;;;;5050846;28;20132;-74
2023/06/09 10:12:04;;;;;;;8.02;4.03;;;27.80;99.90;;;;;;5062265;28;20093;-74
2023/06/09 10:14:30;;;;;;;9.07;4.15;;;27.40;1.00;;;;;;5047486;28;20143;-72
2023/06/09 10:16:57;;;;;;;9.15;4.35;;;27.50;1.00;;;;;;5042747;28;20151;-73
2023/06/09 10:19:24;;;;;;;6.72;4.20;;;27.20;1.00;;;;;;5050222;28;20045;-74
2023/06/09 10:21:52;;;;;;;7.38;4.50;;;27.80;1.00;;;;;;5065298;28;20049;-73
2023/06/09 10:24:19;;;;;;;6.35;4.10;;;27.90;99.90;;;;;;5071390;28;20033;-73
2023/06/09 10:26:47;;;;;;;8.63;4.82;;;28.10;99.90;;;;;;5056470;28;20037;-75
2023/06/09 10:29:14;;;;;;;6.45;4.65;;;28.00;99.90;;;;;;5047682;28;20037;-74
2023/06/09 10:31:44;;;;;;;7.07;4.75;;;27.50;99.90;;;;;;5070739;28;20047;-74
2023/06/09 10:34:13;;;;;;;6.68;4.10;;;27.60;99.90;;;;;;5051516;28;20048;-72
2023/06/09 10:36:39;;;;;;;6.60;4.05;;;27.90;99.90;;;;;;5050860;28;20055;-76
2023/06/09 10:39:18;;;;;;;7.38;4.13;;;28.30;99.90;;;;;;5070343;28;20449;-77
2023/06/09 10:41:55;;;;;;;7.95;4.15;;;28.30;99.90;;;;;;5070644;28;20123;-72
2023/06/09 10:44:24;;;;;;;6.13;4.18;;;28.30;99.90;;;;;;5052768;28;20049;-73
2023/06/09 10:46:52;;;;;;;4.20;3.42;;;28.80;99.90;;;;;;5066108;28;20040;-73
2023/06/09 10:49:25;;;;;;;7.80;5.25;;;28.40;99.90;;;;;;5070062;28;20037;-73
2023/06/09 10:51:52;;;;;;;5.15;4.20;;;28.30;99.90;;;;;;5070409;28;20041;-70
2023/06/09 10:54:19;;;;;;;6.55;4.10;;;28.40;99.90;;;;;;5049419;28;20494;-74
2023/06/09 10:56:54;;;;;;;6.57;4.35;;;28.90;99.90;;;;;;5067431;28;20044;-74
2023/06/09 10:59:25;;;;;;;5.00;3.72;;;28.70;99.90;;;;;;5071527;28;20045;-75
2023/06/09 11:02:03;;;;;;;5.95;4.30;;;28.90;99.90;;;;;;5069945;28;20044;-74
2023/06/09 11:04:38;;;;;;;4.93;3.58;;;28.70;99.90;;;;;;5064299;28;20037;-74
2023/06/09 11:07:11;;;;;;;8.18;4.60;;;29.50;99.90;;;;;;5069769;28;20047;-74
2023/06/09 11:09:37;;;;;;;5.68;4.18;;;28.90;99.90;;;;;;5053587;28;20128;-76
2023/06/09 11:12:04;;;;;;;4.65;3.92;;;28.80;99.90;;;;;;5069490;28;20123;-74
2023/06/09 11:14:45;;;;;;;4.70;3.85;;;28.90;99.90;;;;;;5025663;28;20091;-74
2023/06/09 11:17:29;;;;;;;5.88;4.18;;;29.60;99.90;;;;;;5052937;28;20079;-75
2023/06/09 11:20:10;;;;;;;7.22;4.35;;;29.50;99.90;;;;;;5069617;28;20860;-73
2023/06/09 11:22:42;;;;;;;5.53;3.85;;;30.30;99.90;;;;;;5053192;28;20443;-74
2023/06/09 11:25:28;;;;;;;5.68;3.88;;;29.50;99.90;;;;;;5060975;28;20063;-76
2023/06/09 11:27:57;;;;;;;6.30;4.00;;;29.60;99.90;;;;;;5069136;28;20062;-74
2023/06/09 11:30:29;;;;;;;5.80;4.00;;;28.90;99.90;;;;;;5067238;28;20101;-75
2023/06/09 11:32:56;;;;;;;5.22;3.85;;;29.20;99.90;;;;;;5069071;28;20101;-76
2023/06/09 11:35:27;;;;;;;4.95;3.80;;;29.90;99.90;;;;;;5051394;28;20043;-75
2023/06/09 11:37:54;;;;;;;7.00;4.10;;;30.20;94.90;;;;;;5065642;28;20040;-76
2023/06/09 11:40:21;;;;;;;5.45;3.92;;;29.70;99.90;;;;;;5042920;28;20040;-77
2023/06/09 11:42:51;;;;;;;4.35;3.95;;;29.30;95.00;;;;;;5051545;28;20474;-77
2023/06/09 11:45:23;;;;;;;4.72;3.63;;;29.30;92.90;;;;;;5051974;28;20116;-75
2023/06/09 11:47:49;;;;;;;5.63;3.88;;;29.60;99.90;;;;;;5047485;28;20040;-76
2023/06/09 11:50:16;;;;;;;4.35;3.85;;;29.70;99.90;;;;;;5067422;28;20047;-76
2023/06/09 11:52:45;;;;;;;4.53;3.58;;;30.30;99.90;;;;;;5068683;28;20036;-75
2023/06/09 11:55:14;;;;;;;4.85;3.75;;;29.90;99.90;;;;;;5034292;28;20044;-77
2023/06/09 11:57:43;;;;;;;4.57;4.05;;;29.50;99.90;;;;;;5048702;28;20144;-78
2023/06/09 12:00:17;;;;;;;6.25;3.90;;;28.60;99.90;;;;;;5066343;28;20044;-75
2023/06/09 12:02:49;;;;;;;7.10;4.47;;;28.80;99.90;;;;;;5031971;28;20041;-75
2023/06/09 12:05:16;;;;;;;5.03;4.15;;;29.20;99.90;;;;;;5065681;28;20036;-78
2023/06/09 12:07:45;;;;;;;6.47;4.13;;;29.00;99.90;;;;;;5050957;28;20415;-75
2023/06/09 12:10:14;;;;;;;4.00;3.60;;;29.10;99.90;;;;;;5064848;28;20098;-74
2023/06/09 12:12:43;;;;;;;6.15;4.25;;;29.30;99.90;;;;;;5067120;28;20048;-76
2023/06/09 12:15:13;;;;;;;7.10;4.45;;;29.80;99.90;;;;;;5045000;28;20055;-75
2023/06/09 12:17:40;;;;;;;6.43;4.32;;;28.90;99.90;;;;;;5049995;28;20393;-75
2023/06/09 12:20:25;;;;;;;6.10;4.20;;;29.10;99.90;;;;;;5064006;28;20043;-76
2023/06/09 12:22:52;;;;;;;8.77;4.28;;;29.20;99.90;;;;;;5058528;28;20040;-76
2023/06/09 12:25:27;;;;;;;4.50;4.10;;;29.20;99.90;;;;;;5050028;28;20056;-76
2023/06/09 12:27:54;;;;;;;5.25;4.25;;;29.20;99.90;;;;;;5049845;28;20041;-77
2023/06/09 12:30:33;;;;;;;5.82;4.22;;;28.90;93.00;;;;;;5066637;28;20508;-77
2023/06/09 12:33:10;;;;;;;5.38;4.15;;;29.00;70.30;;;;;;5067176;28;20050;-75
2023/06/09 12:35:40;;;;;;;6.07;4.10;;;29.00;66.40;;;;;;5066827;28;20040;-77
2023/06/09 12:38:14;;;;;;;5.40;3.83;;;29.00;88.30;;;;;;5044006;28;20128;-76
2023/06/09 12:40:50;;;;;;;4.15;3.72;;;29.00;96.30;;;;;;5050233;28;20039;-78
2023/06/09 12:43:23;;;;;;;4.38;3.97;;;29.80;36.00;;;;;;5062554;28;20053;-77
2023/06/09 12:45:54;;;;;;;4.20;3.78;;;29.70;70.00;;;;;;5058601;28;20028;-75